Aviation Digital Data Service (ADDS)

Output produced by METARs form (0929 UTC 24 October 2014)
found at http://aviationweather.gov/adds/metars/
 
KRME 240900Z 2409/2506 31007KT P6SM SCT020 BKN050 
     TEMPO 2409/2411 OVC020 
     FM241800 30010KT P6SM SCT100 
     FM242300 29004KT P6SM SKC